createdAt,value
2023-01-22T00:02:00.875Z,100472.38
2023-01-22T00:06:53.860Z,100456.56
2023-01-22T00:11:47.945Z,100481.94
2023-01-22T00:16:41.739Z,100459.63
2023-01-22T00:21:35.109Z,100463.22
2023-01-22T00:26:28.775Z,100480.03
2023-01-22T00:31:22.822Z,100492.31
2023-01-22T00:36:19.211Z,100484.38
2023-01-22T00:41:14.512Z,100498.50
2023-01-22T00:46:09.309Z,100481.53
2023-01-22T00:51:02.461Z,100508.13
2023-01-22T00:55:57.497Z,100532.97
2023-01-22T01:00:51.307Z,100500.06
2023-01-22T01:05:44.862Z,100539.03
2023-01-22T01:10:38.547Z,100535.44
2023-01-22T01:15:31.369Z,100514.44
2023-01-22T01:20:24.427Z,100531.16
2023-01-22T01:25:18.248Z,100541.75
2023-01-22T01:30:12.781Z,100519.06
2023-01-22T01:35:07.112Z,100543.63
2023-01-22T01:40:01.905Z,100526.31
2023-01-22T01:45:19.990Z,100566.44
2023-01-22T01:50:13.055Z,100572.88
2023-01-22T01:55:09.379Z,100571.00
2023-01-22T02:00:06.156Z,100544.31
2023-01-22T02:05:07.372Z,100552.97
2023-01-22T02:10:00.923Z,100582.16
2023-01-22T02:14:55.257Z,100557.44
2023-01-22T02:19:48.040Z,100559.81
2023-01-22T02:24:41.392Z,100557.88
2023-01-22T02:29:39.347Z,100598.41
2023-01-22T02:34:36.206Z,100559.69
2023-01-22T02:39:31.215Z,100605.19
2023-01-22T02:44:27.709Z,100605.31
2023-01-22T02:49:20.767Z,100574.16
2023-01-22T02:54:14.412Z,100547.41
2023-01-22T02:59:07.369Z,100564.44
2023-01-22T03:04:02.016Z,100603.31
2023-01-22T03:08:57.102Z,100575.16
2023-01-22T03:14:08.550Z,100539.53
2023-01-22T03:19:22.792Z,100570.41
2023-01-22T03:24:15.545Z,100599.06
2023-01-22T03:29:08.467Z,100593.19
2023-01-22T03:34:02.242Z,100572.41
2023-01-22T03:38:54.953Z,100601.72
2023-01-22T03:43:51.050Z,100618.44
2023-01-22T03:48:51.632Z,100637.63
2023-01-22T03:53:46.648Z,100598.94
2023-01-22T03:58:39.231Z,100612.19
2023-01-22T04:03:33.612Z,100595.88
2023-01-22T04:08:47.769Z,100646.50
2023-01-22T04:13:43.309Z,100611.41
2023-01-22T04:18:37.456Z,100631.53
2023-01-22T04:23:52.650Z,100628.06
2023-01-22T04:28:45.661Z,100647.47
2023-01-22T04:33:41.164Z,100632.31
2023-01-22T04:38:48.531Z,100681.91
2023-01-22T04:43:42.401Z,100663.97
2023-01-22T04:48:35.705Z,100702.03
2023-01-22T04:53:28.826Z,100696.81
2023-01-22T04:58:22.326Z,100694.34
2023-01-22T05:03:17.156Z,100649.56
2023-01-22T05:08:10.508Z,100673.69
2023-01-22T05:13:05.744Z,100675.56
2023-01-22T05:17:59.695Z,100661.56
2023-01-22T05:22:53.729Z,100672.72
2023-01-22T05:27:50.698Z,100653.38
2023-01-22T05:33:13.362Z,100683.56
2023-01-22T05:38:10.739Z,100678.53
2023-01-22T05:43:05.039Z,100686.91
2023-01-22T05:47:59.150Z,100676.44
2023-01-22T05:53:01.900Z,100694.34
2023-01-22T05:57:54.688Z,100712.63
2023-01-22T06:02:49.971Z,100728.66
2023-01-22T06:07:43.172Z,100733.59
2023-01-22T06:12:35.347Z,100726.69
2023-01-22T06:17:28.904Z,100712.53
2023-01-22T06:22:27.294Z,100739.88
2023-01-22T06:27:23.651Z,100755.91
2023-01-22T06:32:24.859Z,100724.00
2023-01-22T06:37:18.731Z,100729.09
2023-01-22T06:42:12.949Z,100711.59
2023-01-22T06:47:06.866Z,100714.88
2023-01-22T06:52:00.494Z,100731.28
2023-01-22T06:56:54.211Z,100702.31
2023-01-22T07:01:49.334Z,100714.75
2023-01-22T07:06:42.318Z,100678.91
2023-01-22T07:11:35.877Z,100719.53
2023-01-22T07:16:28.404Z,100673.88
2023-01-22T07:21:22.298Z,100714.00
2023-01-22T07:26:16.749Z,100687.88
2023-01-22T07:31:12.914Z,100705.22
2023-01-22T07:36:07.342Z,100718.44
2023-01-22T07:41:11.461Z,100712.72
2023-01-22T07:46:14.124Z,100740.19
2023-01-22T07:51:07.805Z,100742.00
2023-01-22T07:56:06.405Z,100737.88
2023-01-22T08:00:59.605Z,100730.63
2023-01-22T08:05:52.523Z,100764.50
2023-01-22T08:10:46.486Z,100761.97
2023-01-22T08:15:39.800Z,100773.09
2023-01-22T08:20:34.163Z,100763.16
2023-01-22T08:25:28.069Z,100773.94
2023-01-22T08:30:21.867Z,100745.03
2023-01-22T08:35:15.447Z,100787.94
2023-01-22T08:40:11.222Z,100796.81
2023-01-22T08:45:06.475Z,100764.34
2023-01-22T08:50:02.572Z,100806.22
2023-01-22T08:54:56.743Z,100792.00
2023-01-22T09:00:00.660Z,100829.94
2023-01-22T09:04:54.670Z,100807.72
2023-01-22T09:09:48.643Z,100831.84
2023-01-22T09:14:41.868Z,100814.66
2023-01-22T09:19:34.646Z,100821.94
2023-01-22T09:24:28.922Z,100864.44
2023-01-22T09:29:22.899Z,100867.75
2023-01-22T09:34:17.273Z,100843.66
2023-01-22T09:39:10.844Z,100862.38
2023-01-22T09:44:12.691Z,100873.75
2023-01-22T09:49:46.950Z,100874.59
2023-01-22T09:54:40.613Z,100851.28
2023-01-22T09:59:37.333Z,100866.81
2023-01-22T10:04:44.010Z,100877.06
2023-01-22T10:09:40.450Z,100877.06
2023-01-22T10:14:33.510Z,100889.31
2023-01-22T10:19:41.260Z,100877.06
2023-01-22T10:24:41.360Z,100867.84
2023-01-22T10:29:37.736Z,100872.91
2023-01-22T10:34:36.757Z,100864.34
2023-01-22T10:39:42.946Z,100885.97
2023-01-22T10:44:37.385Z,100867.91
2023-01-22T10:49:31.016Z,100853.84
2023-01-22T10:54:37.160Z,100876.91
2023-01-22T10:59:32.576Z,100851.19
2023-01-22T11:04:34.052Z,100884.31
2023-01-22T11:09:36.773Z,100884.84
2023-01-22T11:14:38.060Z,100856.34
2023-01-22T11:19:40.171Z,100842.22
2023-01-22T11:24:47.564Z,100857.78
2023-01-22T11:29:58.597Z,100866.06
2023-01-22T11:35:02.906Z,100873.31
2023-01-22T11:40:22.808Z,100873.31
2023-01-22T11:45:53.145Z,100861.38
2023-01-22T11:50:52.523Z,100879.41
2023-01-22T11:56:10.285Z,100870.16
2023-01-22T12:01:41.334Z,100880.91
2023-01-22T12:06:55.261Z,100885.47
2023-01-22T12:12:17.040Z,100907.59
2023-01-22T12:17:31.714Z,100900.56
2023-01-22T12:22:35.623Z,100889.63
2023-01-22T12:27:44.662Z,100900.63
2023-01-22T12:32:38.532Z,100902.44
2023-01-22T12:37:43.347Z,100900.63
2023-01-22T12:43:04.013Z,100910.38
2023-01-22T12:48:06.566Z,100878.44
2023-01-22T12:53:05.003Z,100884.56
2023-01-22T12:57:58.293Z,100882.88
2023-01-22T13:02:51.176Z,100910.22
2023-01-22T13:07:44.549Z,100905.00
2023-01-22T13:12:46.231Z,100910.47
2023-01-22T13:17:42.453Z,100891.69
2023-01-22T13:22:35.022Z,100911.41
2023-01-22T13:27:32.133Z,100894.13
2023-01-22T13:32:29.614Z,100914.13
2023-01-22T13:37:25.064Z,100910.38
2023-01-22T13:42:18.050Z,100912.09
2023-01-22T13:47:45.330Z,100868.34
2023-01-22T13:52:38.540Z,100908.84
2023-01-22T13:57:32.234Z,100891.94
2023-01-22T14:02:28.618Z,100918.59
2023-01-22T14:07:28.726Z,100914.31
2023-01-22T14:12:24.139Z,100904.50
2023-01-22T14:17:34.296Z,100886.63
2023-01-22T14:22:27.883Z,100915.78
2023-01-22T14:27:22.885Z,100888.16
2023-01-22T14:32:16.312Z,100918.59
2023-01-22T14:37:10.284Z,100904.03
2023-01-22T14:42:04.606Z,100929.31
2023-01-22T14:46:58.819Z,100916.69
2023-01-22T14:51:55.319Z,100911.38
2023-01-22T14:56:48.723Z,100938.03
2023-01-22T15:01:42.057Z,100918.56
2023-01-22T15:06:36.174Z,100938.66
2023-01-22T15:11:29.899Z,100948.28
2023-01-22T15:16:23.215Z,100924.91
2023-01-22T15:21:16.611Z,100905.53
2023-01-22T15:26:24.673Z,100947.44
2023-01-22T15:31:17.418Z,100954.38
2023-01-22T15:36:10.864Z,100960.69
2023-01-22T15:41:06.043Z,100947.16
2023-01-22T15:45:59.371Z,100959.75
2023-01-22T15:50:52.813Z,100967.78
2023-01-22T15:55:50.731Z,100942.03
2023-01-22T16:00:44.420Z,100949.91
2023-01-22T16:05:37.673Z,100975.63
2023-01-22T16:10:31.914Z,100971.63
2023-01-22T16:15:25.281Z,100962.97
2023-01-22T16:20:19.235Z,100945.94
2023-01-22T16:25:14.008Z,100966.88
2023-01-22T16:30:08.175Z,100998.69
2023-01-22T16:35:01.548Z,100984.56
2023-01-22T16:39:53.559Z,100988.72
2023-01-22T16:44:48.010Z,101033.88
2023-01-22T16:49:41.786Z,101025.31
2023-01-22T16:54:38.283Z,101007.44
2023-01-22T16:59:33.764Z,100993.66
2023-01-22T17:04:28.129Z,101037.38
2023-01-22T17:09:27.273Z,101065.50
2023-01-22T17:14:24.677Z,101058.31
2023-01-22T17:19:20.774Z,101039.66
2023-01-22T17:24:14.634Z,101044.84
2023-01-22T17:29:10.120Z,101030.69
2023-01-22T17:34:04.593Z,101061.72
2023-01-22T17:38:57.907Z,101034.13
2023-01-22T17:43:56.937Z,101046.66
2023-01-22T17:48:52.763Z,101068.66
2023-01-22T17:53:47.481Z,101078.56
2023-01-22T17:58:46.679Z,101053.81
2023-01-22T18:03:41.342Z,101071.78
2023-01-22T18:08:39.428Z,101066.91
2023-01-22T18:13:32.593Z,101086.81
2023-01-22T18:18:26.237Z,101100.84
2023-01-22T18:23:25.829Z,101065.50
2023-01-22T18:28:19.234Z,101104.44
2023-01-22T18:33:14.825Z,101075.00
2023-01-22T18:38:08.175Z,101109.41
2023-01-22T18:43:02.392Z,101079.66
2023-01-22T18:47:56.211Z,101103.16
2023-01-22T18:52:49.684Z,101062.13
2023-01-22T18:57:57.729Z,101087.59
2023-01-22T19:03:14.391Z,101113.31
2023-01-22T19:08:07.693Z,101109.72
2023-01-22T19:13:01.707Z,101084.41
2023-01-22T19:17:59.220Z,101109.34
2023-01-22T19:22:54.793Z,101101.59
2023-01-22T19:27:48.529Z,101092.22
2023-01-22T19:32:43.849Z,101116.25
2023-01-22T19:37:37.223Z,101124.25
2023-01-22T19:42:30.559Z,101079.41
2023-01-22T19:47:24.657Z,101125.13
2023-01-22T19:52:18.107Z,101096.47
2023-01-22T19:57:11.945Z,101113.44
2023-01-22T20:02:05.426Z,101118.81
2023-01-22T20:07:01.821Z,101123.97
2023-01-22T20:11:56.677Z,101117.78
2023-01-22T20:16:50.539Z,101138.28
2023-01-22T20:21:44.795Z,101119.94
2023-01-22T20:26:38.215Z,101126.16
2023-01-22T20:31:32.637Z,101140.09
2023-01-22T20:36:29.234Z,101120.91
2023-01-22T20:41:24.379Z,101145.06
2023-01-22T20:46:24.249Z,101122.03
2023-01-22T20:51:18.301Z,101116.50
2023-01-22T20:56:17.520Z,101124.81
2023-01-22T21:01:18.988Z,101131.56
2023-01-22T21:06:14.533Z,101118.25
2023-01-22T21:11:11.830Z,101139.69
2023-01-22T21:16:10.439Z,101137.25
2023-01-22T21:21:06.633Z,101106.19
2023-01-22T21:26:05.657Z,101115.56
2023-01-22T21:31:14.622Z,101105.59
2023-01-22T21:36:10.325Z,101125.03
2023-01-22T21:41:13.677Z,101139.06
2023-01-22T21:46:22.534Z,101139.91
2023-01-22T21:51:17.006Z,101137.59
2023-01-22T21:56:11.298Z,101150.34
2023-01-22T22:01:07.824Z,101130.19
2023-01-22T22:06:02.508Z,101145.69
2023-01-22T22:10:55.874Z,101171.53
2023-01-22T22:15:49.876Z,101132.63
2023-01-22T22:20:44.415Z,101156.56
2023-01-22T22:25:39.689Z,101132.53
2023-01-22T22:30:39.055Z,101165.47
2023-01-22T22:35:33.940Z,101135.03
2023-01-22T22:40:30.001Z,101141.63
2023-01-22T22:45:23.396Z,101142.50
2023-01-22T22:50:16.779Z,101153.16
2023-01-22T22:55:11.276Z,101138.97
2023-01-22T23:00:12.521Z,101135.41
2023-01-22T23:05:05.865Z,101101.69
2023-01-22T23:10:00.001Z,101090.72
2023-01-22T23:14:53.809Z,101120.28
2023-01-22T23:19:55.960Z,101097.31
2023-01-22T23:24:48.823Z,101110.97
2023-01-22T23:29:42.251Z,101116.81
2023-01-22T23:34:36.490Z,101110.78
2023-01-22T23:39:30.089Z,101074.06
2023-01-22T23:44:23.368Z,101115.22
2023-01-22T23:49:23.165Z,101078.88
2023-01-22T23:54:16.794Z,101102.94
2023-01-22T23:59:11.902Z,101107.38
